createdAt,value
2018-07-20T00:00:02.606Z,99391.92
2018-07-20T00:02:31.387Z,99389.59
2018-07-20T00:05:00.068Z,99390.81
2018-07-20T00:07:28.848Z,99393.34
2018-07-20T00:09:57.611Z,99387.48
2018-07-20T00:12:26.390Z,99387.86
2018-07-20T00:14:55.092Z,99389.74
2018-07-20T00:17:23.866Z,99386.22
2018-07-20T00:19:52.688Z,99395.47
2018-07-20T00:22:21.365Z,99392.73
2018-07-20T00:24:50.060Z,99394.98
2018-07-20T00:27:18.748Z,99395.63
2018-07-20T00:29:47.436Z,99386.79
2018-07-20T00:32:16.120Z,99391.91
2018-07-20T00:34:44.799Z,99392.67
2018-07-20T00:37:13.823Z,99395.75
2018-07-20T00:39:42.578Z,99388.09
2018-07-20T00:42:11.410Z,99386.82
2018-07-20T00:44:40.060Z,99387.73
2018-07-20T00:47:14.089Z,99387.93
2018-07-20T00:49:42.681Z,99397.31
2018-07-20T00:52:13.178Z,99393.97
2018-07-20T00:54:41.893Z,99397.13
2018-07-20T00:57:10.609Z,99406.25
2018-07-20T00:59:39.778Z,99399.66
2018-07-20T01:02:08.689Z,99400.77
2018-07-20T01:04:37.384Z,99396.20
2018-07-20T01:07:06.130Z,99396.94
2018-07-20T01:09:34.792Z,99389.13
2018-07-20T01:12:03.522Z,99385.33
2018-07-20T01:14:32.127Z,99384.19
2018-07-20T01:17:00.786Z,99383.10
2018-07-20T01:19:30.067Z,99387.20
2018-07-20T01:21:58.731Z,99392.00
2018-07-20T01:24:27.524Z,99386.06
2018-07-20T01:26:56.231Z,99382.70
2018-07-20T01:29:24.897Z,99379.75
2018-07-20T01:31:53.601Z,99382.72
2018-07-20T01:34:22.229Z,99384.09
2018-07-20T01:36:50.980Z,99390.96
2018-07-20T01:39:19.662Z,99378.33
2018-07-20T01:41:48.297Z,99378.70
2018-07-20T01:44:16.928Z,99374.71
2018-07-20T01:46:45.584Z,99380.29
2018-07-20T01:49:14.203Z,99377.13
2018-07-20T01:51:42.806Z,99385.82
2018-07-20T01:54:11.457Z,99385.82
2018-07-20T01:56:40.183Z,99383.81
2018-07-20T01:59:08.897Z,99383.98
2018-07-20T02:01:37.554Z,99388.06
2018-07-20T02:04:06.576Z,99384.98
2018-07-20T02:06:35.190Z,99387.12
2018-07-20T02:09:04.896Z,99377.11
2018-07-20T02:11:34.323Z,99378.58
2018-07-20T02:14:03.028Z,99376.89
2018-07-20T02:16:31.751Z,99377.95
2018-07-20T02:19:00.361Z,99371.36
2018-07-20T02:21:29.210Z,99375.25
2018-07-20T02:23:57.809Z,99385.54
2018-07-20T02:26:26.454Z,99385.36
2018-07-20T02:28:55.073Z,99378.30
2018-07-20T02:31:23.689Z,99375.22
2018-07-20T02:33:52.388Z,99373.11
2018-07-20T02:36:21.045Z,99372.79
2018-07-20T02:38:49.795Z,99369.91
2018-07-20T02:41:18.403Z,99371.08
2018-07-20T02:43:46.984Z,99362.68
2018-07-20T02:46:15.678Z,99366.01
2018-07-20T02:48:44.377Z,99367.06
2018-07-20T02:51:13.044Z,99366.57
2018-07-20T02:53:41.770Z,99372.33
2018-07-20T02:56:10.368Z,99366.57
2018-07-20T02:58:39.017Z,99364.43
2018-07-20T03:01:07.721Z,99370.59
2018-07-20T03:03:36.574Z,99366.53
2018-07-20T03:06:05.747Z,99368.00
2018-07-20T03:08:34.422Z,99361.55
2018-07-20T03:11:03.151Z,99369.47
2018-07-20T03:13:31.794Z,99362.45
2018-07-20T03:16:00.422Z,99358.17
2018-07-20T03:18:29.105Z,99354.09
2018-07-20T03:20:57.861Z,99352.36
2018-07-20T03:23:26.454Z,99353.14
2018-07-20T03:25:55.079Z,99349.12
2018-07-20T03:28:23.847Z,99344.78
2018-07-20T03:30:52.612Z,99355.17
2018-07-20T03:33:21.698Z,99351.89
2018-07-20T03:35:50.333Z,99359.45
2018-07-20T03:38:18.980Z,99357.31
2018-07-20T03:40:47.646Z,99350.48
2018-07-20T03:43:16.251Z,99356.70
2018-07-20T03:45:44.870Z,99355.19
2018-07-20T03:48:13.544Z,99351.06
2018-07-20T03:50:42.154Z,99353.53
2018-07-20T03:53:11.556Z,99351.67
2018-07-20T03:55:40.203Z,99347.44
2018-07-20T03:58:08.886Z,99351.67
2018-07-20T04:00:37.575Z,99342.12
2018-07-20T04:03:07.744Z,99341.73
2018-07-20T04:05:36.918Z,99346.03
2018-07-20T04:08:05.626Z,99345.22
2018-07-20T04:10:34.231Z,99351.02
2018-07-20T04:13:02.847Z,99353.27
2018-07-20T04:15:31.492Z,99350.84
2018-07-20T04:18:00.289Z,99355.82
2018-07-20T04:20:29.038Z,99351.51
2018-07-20T04:22:57.708Z,99353.68
2018-07-20T04:25:26.377Z,99355.58
2018-07-20T04:27:55.159Z,99363.91
2018-07-20T04:30:23.822Z,99356.02
2018-07-20T04:32:56.783Z,99361.13
2018-07-20T04:35:25.697Z,99360.77
2018-07-20T04:37:54.316Z,99376.09
2018-07-20T04:40:23.004Z,99362.34
2018-07-20T04:42:51.719Z,99370.14
2018-07-20T04:45:20.377Z,99370.91
2018-07-20T04:47:49.578Z,99365.04
2018-07-20T04:50:18.236Z,99376.73
2018-07-20T04:52:47.010Z,99372.03
2018-07-20T04:55:15.621Z,99369.52
2018-07-20T04:57:44.370Z,99381.02
2018-07-20T05:00:13.132Z,99374.55
2018-07-20T05:02:41.920Z,99366.27
2018-07-20T05:05:10.573Z,99359.88
2018-07-20T05:07:39.309Z,99374.00
2018-07-20T05:10:08.299Z,99367.08
2018-07-20T05:12:37.014Z,99371.17
2018-07-20T05:15:05.747Z,99376.42
2018-07-20T05:17:34.459Z,99370.00
2018-07-20T05:20:03.141Z,99369.89
2018-07-20T05:22:31.854Z,99371.89
2018-07-20T05:25:00.727Z,99370.63
2018-07-20T05:27:30.044Z,99375.45
2018-07-20T05:30:06.786Z,99381.23
2018-07-20T05:32:35.577Z,99377.51
2018-07-20T05:35:04.336Z,99370.00
2018-07-20T05:37:33.033Z,99370.19
2018-07-20T05:40:01.764Z,99370.09
2018-07-20T05:42:30.501Z,99371.16
2018-07-20T05:44:59.237Z,99376.10
2018-07-20T05:47:27.999Z,99376.91
2018-07-20T05:49:56.697Z,99378.90
2018-07-20T05:52:25.426Z,99368.56
2018-07-20T05:54:54.134Z,99378.05
2018-07-20T05:57:22.830Z,99373.61
2018-07-20T05:59:51.572Z,99374.15
2018-07-20T06:02:20.301Z,99373.30
2018-07-20T06:04:49.000Z,99372.09
2018-07-20T06:07:17.788Z,99375.41
2018-07-20T06:09:46.639Z,99369.37
2018-07-20T06:12:15.367Z,99376.09
2018-07-20T06:14:44.121Z,99383.72
2018-07-20T06:17:12.901Z,99367.94
2018-07-20T06:19:41.614Z,99373.09
2018-07-20T06:22:10.338Z,99375.20
2018-07-20T06:24:39.137Z,99372.66
2018-07-20T06:27:07.838Z,99376.48
2018-07-20T06:29:36.456Z,99372.30
2018-07-20T06:32:05.240Z,99376.23
2018-07-20T06:34:33.886Z,99369.89
2018-07-20T06:37:02.594Z,99378.80
2018-07-20T06:39:31.214Z,99375.74
2018-07-20T06:41:59.966Z,99374.90
2018-07-20T06:44:28.882Z,99374.30
2018-07-20T06:46:57.593Z,99367.38
2018-07-20T06:49:26.419Z,99377.28
2018-07-20T06:51:55.215Z,99377.30
2018-07-20T06:54:23.952Z,99384.37
2018-07-20T06:56:52.676Z,99386.22
2018-07-20T06:59:21.430Z,99379.84
2018-07-20T07:01:56.759Z,99381.86
2018-07-20T07:04:25.482Z,99387.25
2018-07-20T07:06:54.570Z,99396.88
2018-07-20T07:09:23.382Z,99386.00
2018-07-20T07:11:52.143Z,99392.52
2018-07-20T07:14:21.201Z,99391.72
2018-07-20T07:16:49.981Z,99393.53
2018-07-20T07:19:18.771Z,99390.67
2018-07-20T07:21:47.478Z,99384.81
2018-07-20T07:24:16.235Z,99387.06
2018-07-20T07:26:45.032Z,99396.69
2018-07-20T07:29:13.818Z,99387.19
2018-07-20T07:31:43.285Z,99396.50
2018-07-20T07:34:12.015Z,99398.22
2018-07-20T07:36:40.939Z,99396.12
2018-07-20T07:39:11.542Z,99396.97
2018-07-20T07:41:40.286Z,99396.63
2018-07-20T07:44:09.198Z,99396.72
2018-07-20T07:46:38.043Z,99396.09
2018-07-20T07:49:06.973Z,99388.20
2018-07-20T07:51:36.364Z,99381.55
2018-07-20T07:54:05.481Z,99380.28
2018-07-20T07:56:34.342Z,99380.44
2018-07-20T07:59:03.055Z,99386.78
2018-07-20T08:01:31.845Z,99385.08
2018-07-20T08:04:00.594Z,99369.23
2018-07-20T08:06:29.344Z,99380.59
2018-07-20T08:08:58.997Z,99401.59
2018-07-20T08:11:27.714Z,99384.61
2018-07-20T08:13:56.500Z,99386.03
2018-07-20T08:16:25.261Z,99380.37
2018-07-20T08:18:54.056Z,99378.88
2018-07-20T08:21:22.805Z,99388.08
2018-07-20T08:23:51.582Z,99406.47
2018-07-20T08:26:20.405Z,99389.11
2018-07-20T08:28:49.250Z,99385.52
2018-07-20T08:31:18.028Z,99393.09
2018-07-20T08:33:46.830Z,99384.23
2018-07-20T08:36:15.565Z,99385.30
2018-07-20T08:38:44.324Z,99380.16
2018-07-20T08:41:13.134Z,99381.01
2018-07-20T08:43:41.860Z,99374.86
2018-07-20T08:46:10.550Z,99373.55
2018-07-20T08:48:39.363Z,99383.18
2018-07-20T08:51:08.153Z,99375.17
2018-07-20T08:53:36.935Z,99379.98
2018-07-20T08:56:05.982Z,99377.84
2018-07-20T08:58:34.738Z,99383.66
2018-07-20T09:01:04.362Z,99378.91
2018-07-20T09:03:33.174Z,99377.68
2018-07-20T09:06:01.929Z,99371.46
2018-07-20T09:08:30.712Z,99371.00
2018-07-20T09:10:59.557Z,99370.06
2018-07-20T09:13:28.358Z,99367.76
2018-07-20T09:15:57.130Z,99365.75
2018-07-20T09:18:25.916Z,99378.02
2018-07-20T09:20:54.655Z,99368.00
2018-07-20T09:23:23.428Z,99375.78
2018-07-20T09:25:52.134Z,99376.87
2018-07-20T09:28:20.851Z,99359.41
2018-07-20T09:30:49.549Z,99363.76
2018-07-20T09:33:18.226Z,99362.56
2018-07-20T09:35:46.926Z,99374.89
2018-07-20T09:38:15.779Z,99363.50
2018-07-20T09:40:44.447Z,99356.37
2018-07-20T09:43:13.143Z,99358.63
2018-07-20T09:45:41.947Z,99354.77
2018-07-20T09:48:10.633Z,99355.89
2018-07-20T09:50:39.390Z,99363.73
2018-07-20T09:53:08.165Z,99360.67
2018-07-20T09:55:36.886Z,99349.52
2018-07-20T09:58:05.815Z,99338.22
2018-07-20T10:00:39.814Z,99334.53
2018-07-20T10:03:08.502Z,99334.27
2018-07-20T10:05:37.299Z,99326.58
2018-07-20T10:08:06.344Z,99332.47
2018-07-20T10:10:35.061Z,99337.46
2018-07-20T10:13:03.830Z,99330.42
2018-07-20T10:15:32.609Z,99341.67
2018-07-20T10:18:02.326Z,99339.53
2018-07-20T10:20:31.002Z,99336.11
2018-07-20T10:22:59.731Z,99333.27
2018-07-20T10:25:28.620Z,99335.12
2018-07-20T10:27:57.339Z,99336.53
2018-07-20T10:30:26.070Z,99343.16
2018-07-20T10:32:55.343Z,99329.45
2018-07-20T10:35:24.068Z,99319.20
2018-07-20T10:37:52.884Z,99325.70
2018-07-20T10:40:25.532Z,99332.03
2018-07-20T10:42:55.244Z,99328.69
2018-07-20T10:45:24.093Z,99318.39
2018-07-20T10:47:52.786Z,99328.69
2018-07-20T10:50:21.572Z,99317.89
2018-07-20T10:52:50.294Z,99314.23
2018-07-20T10:55:19.554Z,99308.11
2018-07-20T10:57:48.447Z,99300.21
2018-07-20T11:00:17.199Z,99299.48
2018-07-20T11:02:46.111Z,99294.57
2018-07-20T11:05:15.128Z,99292.16
2018-07-20T11:07:43.876Z,99291.84
2018-07-20T11:10:12.641Z,99288.10
2018-07-20T11:12:41.421Z,99297.49
2018-07-20T11:15:10.151Z,99288.97
2018-07-20T11:17:38.884Z,99287.20
2018-07-20T11:20:07.613Z,99285.84
2018-07-20T11:22:36.369Z,99294.11
2018-07-20T11:25:05.203Z,99282.10
2018-07-20T11:27:33.868Z,99295.92
2018-07-20T11:30:02.602Z,99278.90
2018-07-20T11:32:31.355Z,99279.28
2018-07-20T11:35:00.062Z,99276.58
2018-07-20T11:37:28.823Z,99272.52
2018-07-20T11:39:57.524Z,99276.00
2018-07-20T11:42:26.248Z,99271.66
2018-07-20T11:44:54.961Z,99277.27
2018-07-20T11:47:23.704Z,99268.70
2018-07-20T11:49:52.429Z,99269.30
2018-07-20T11:52:21.382Z,99259.70
2018-07-20T11:54:50.310Z,99259.16
2018-07-20T11:57:19.048Z,99261.86
2018-07-20T11:59:47.894Z,99262.45
2018-07-20T12:02:16.752Z,99260.72
2018-07-20T12:04:45.552Z,99263.77
2018-07-20T12:07:14.347Z,99254.23
2018-07-20T12:09:43.016Z,99254.53
2018-07-20T12:12:12.908Z,99246.88
2018-07-20T12:14:41.618Z,99254.53
2018-07-20T12:17:10.673Z,99241.89
2018-07-20T12:19:39.356Z,99246.45
2018-07-20T12:22:08.083Z,99243.22
2018-07-20T12:24:36.786Z,99242.34
2018-07-20T12:27:05.588Z,99230.52
2018-07-20T12:29:37.493Z,99225.33
2018-07-20T12:32:06.406Z,99228.34
2018-07-20T12:34:35.327Z,99217.46
2018-07-20T12:37:04.018Z,99222.44
2018-07-20T12:39:32.768Z,99212.00
2018-07-20T12:42:02.204Z,99222.38
2018-07-20T12:44:30.862Z,99215.27
2018-07-20T12:46:59.525Z,99210.83
2018-07-20T12:49:28.280Z,99213.51
2018-07-20T12:51:57.112Z,99208.16
2018-07-20T12:54:25.802Z,99197.00
2018-07-20T12:56:54.526Z,99190.10
2018-07-20T12:59:23.187Z,99190.59
2018-07-20T13:01:52.095Z,99186.47
2018-07-20T13:04:20.942Z,99185.97
2018-07-20T13:06:49.578Z,99182.70
2018-07-20T13:09:18.263Z,99183.22
2018-07-20T13:11:46.949Z,99185.83
2018-07-20T13:14:15.686Z,99174.92
2018-07-20T13:16:44.502Z,99175.80
2018-07-20T13:19:15.754Z,99175.71
2018-07-20T13:21:45.302Z,99173.62
2018-07-20T13:24:14.321Z,99171.64
2018-07-20T13:26:43.085Z,99171.41
2018-07-20T13:29:11.862Z,99173.61
2018-07-20T13:31:40.604Z,99172.55
2018-07-20T13:34:09.323Z,99161.22
2018-07-20T13:36:38.104Z,99166.90
2018-07-20T13:39:09.529Z,99168.47
2018-07-20T13:41:38.698Z,99147.91
2018-07-20T13:44:07.496Z,99149.95
2018-07-20T13:46:36.270Z,99147.68
2018-07-20T13:49:05.359Z,99151.61
2018-07-20T13:51:34.118Z,99154.53
2018-07-20T13:54:02.833Z,99160.78
2018-07-20T13:56:31.775Z,99159.66
2018-07-20T13:59:00.556Z,99157.59
2018-07-20T14:01:29.287Z,99162.63
2018-07-20T14:03:58.032Z,99158.69
2018-07-20T14:06:26.728Z,99154.41
2018-07-20T14:08:55.494Z,99154.41
2018-07-20T14:11:24.226Z,99155.73
2018-07-20T14:13:53.293Z,99147.14
2018-07-20T14:16:21.994Z,99143.36
2018-07-20T14:18:50.752Z,99142.28
2018-07-20T14:21:19.594Z,99143.30
2018-07-20T14:23:48.363Z,99133.91
2018-07-20T14:26:17.064Z,99131.44
2018-07-20T14:28:46.186Z,99125.61
2018-07-20T14:31:15.023Z,99125.47
2018-07-20T14:33:43.614Z,99121.50
2018-07-20T14:36:12.530Z,99123.35
2018-07-20T14:38:41.310Z,99124.22
2018-07-20T14:41:10.622Z,99109.92
2018-07-20T14:43:39.263Z,99118.41
2018-07-20T14:46:07.998Z,99127.23
2018-07-20T14:48:36.670Z,99117.81
2018-07-20T14:51:05.374Z,99116.14
2018-07-20T14:53:34.371Z,99119.53
2018-07-20T14:56:03.075Z,99112.30
2018-07-20T14:58:31.814Z,99120.56
2018-07-20T15:01:00.779Z,99122.63
2018-07-20T15:03:29.511Z,99124.72
2018-07-20T15:05:58.249Z,99119.32
2018-07-20T15:08:27.055Z,99120.02
2018-07-20T15:10:55.798Z,99123.00
2018-07-20T15:13:24.869Z,99120.46
2018-07-20T15:15:53.572Z,99123.29
2018-07-20T15:18:22.343Z,99124.31
2018-07-20T15:20:52.684Z,99117.02
2018-07-20T15:23:21.542Z,99104.13
2018-07-20T15:25:50.387Z,99101.00
2018-07-20T15:28:19.251Z,99097.09
2018-07-20T15:30:47.966Z,99089.91
2018-07-20T15:33:16.684Z,99080.61
2018-07-20T15:35:45.389Z,99075.14
2018-07-20T15:38:14.355Z,99075.47
2018-07-20T15:40:43.012Z,99074.51
2018-07-20T15:43:11.764Z,99077.84
2018-07-20T15:45:51.770Z,99073.95
2018-07-20T15:48:09.861Z,99073.48
2018-07-20T15:50:38.574Z,99071.68
2018-07-20T15:53:37.358Z,99063.73
2018-07-20T15:55:36.254Z,99073.31
2018-07-20T15:58:05.476Z,99067.19
2018-07-20T16:00:34.494Z,99062.52
2018-07-20T16:03:03.524Z,99062.50
2018-07-20T16:05:33.042Z,99065.50
2018-07-20T16:08:02.028Z,99064.09
2018-07-20T16:10:30.787Z,99062.51
2018-07-20T16:12:59.516Z,99064.83
2018-07-20T16:15:28.425Z,99063.41
2018-07-20T16:17:58.734Z,99067.44
2018-07-20T16:20:27.533Z,99071.63
2018-07-20T16:22:56.263Z,99060.30
2018-07-20T16:25:24.946Z,99058.11
2018-07-20T16:27:53.908Z,99066.23
2018-07-20T16:30:22.796Z,99065.40
2018-07-20T16:32:51.520Z,99057.79
2018-07-20T16:35:20.254Z,99065.91
2018-07-20T16:37:49.029Z,99064.84
2018-07-20T16:40:17.896Z,99067.95
2018-07-20T16:42:46.604Z,99075.66
2018-07-20T16:45:15.349Z,99072.59
2018-07-20T16:47:44.146Z,99068.79
2018-07-20T16:50:12.908Z,99075.43
2018-07-20T16:52:41.696Z,99076.20
2018-07-20T16:55:10.549Z,99077.21
2018-07-20T16:57:39.280Z,99074.88
2018-07-20T17:00:08.511Z,99065.31
2018-07-20T17:02:39.570Z,99073.73
2018-07-20T17:05:08.670Z,99068.47
2018-07-20T17:07:37.330Z,99067.50
2018-07-20T17:10:06.427Z,99061.95
2018-07-20T17:12:36.801Z,99069.05
2018-07-20T17:15:06.003Z,99064.93
2018-07-20T17:17:35.837Z,99062.67
2018-07-20T17:20:11.211Z,99062.31
2018-07-20T17:22:39.917Z,99066.66
2018-07-20T17:25:10.421Z,99070.41
2018-07-20T17:27:45.033Z,99068.83
2018-07-20T17:30:13.919Z,99064.37
2018-07-20T17:32:42.690Z,99061.80
2018-07-20T17:35:11.935Z,99065.67
2018-07-20T17:37:40.679Z,99072.55
2018-07-20T17:40:09.393Z,99068.89
2018-07-20T17:42:38.130Z,99061.70
2018-07-20T17:45:06.905Z,99061.17
2018-07-20T17:47:35.693Z,99066.44
2018-07-20T17:50:11.020Z,99065.41
2018-07-20T17:52:40.668Z,99060.15
2018-07-20T17:55:11.584Z,99055.53
2018-07-20T17:57:40.447Z,99058.15
2018-07-20T18:00:10.663Z,99051.25
2018-07-20T18:02:39.443Z,99049.70
2018-07-20T18:05:08.180Z,99047.72
2018-07-20T18:07:36.978Z,99052.88
2018-07-20T18:10:06.410Z,99054.20
2018-07-20T18:12:35.300Z,99051.50
2018-07-20T18:15:04.052Z,99049.78
2018-07-20T18:17:32.724Z,99056.59
2018-07-20T18:20:01.348Z,99061.36
2018-07-20T18:22:30.001Z,99060.03
2018-07-20T18:24:59.338Z,99061.66
2018-07-20T18:27:28.001Z,99066.05
2018-07-20T18:29:56.673Z,99075.25
2018-07-20T18:32:25.490Z,99081.34
2018-07-20T18:34:54.153Z,99077.77
2018-07-20T18:37:22.940Z,99074.91
2018-07-20T18:39:51.759Z,99078.87
2018-07-20T18:42:20.542Z,99078.27
2018-07-20T18:44:49.307Z,99080.62
2018-07-20T18:47:18.058Z,99078.87
2018-07-20T18:49:46.702Z,99085.41
2018-07-20T18:52:15.383Z,99095.25
2018-07-20T18:54:44.034Z,99098.46
2018-07-20T18:57:12.734Z,99103.47
2018-07-20T18:59:42.339Z,99103.48
2018-07-20T19:02:12.222Z,99104.92
2018-07-20T19:04:41.104Z,99099.20
2018-07-20T19:07:11.161Z,99104.80
2018-07-20T19:09:39.909Z,99106.12
2018-07-20T19:12:09.541Z,99108.65
2018-07-20T19:14:38.176Z,99108.58
2018-07-20T19:17:07.059Z,99110.94
2018-07-20T19:19:35.748Z,99112.31
2018-07-20T19:22:04.415Z,99114.26
2018-07-20T19:24:33.061Z,99116.69
2018-07-20T19:27:01.875Z,99113.25
2018-07-20T19:29:30.493Z,99115.05
2018-07-20T19:31:59.182Z,99109.11
2018-07-20T19:34:27.957Z,99107.45
2018-07-20T19:36:56.596Z,99101.42
2018-07-20T19:39:25.706Z,99106.33
2018-07-20T19:41:54.548Z,99108.47
2018-07-20T19:44:23.372Z,99101.12
2018-07-20T19:46:52.025Z,99106.50
2018-07-20T19:49:21.300Z,99108.53
2018-07-20T19:52:01.481Z,99106.28
2018-07-20T19:54:30.417Z,99109.36
2018-07-20T19:56:59.222Z,99107.68
2018-07-20T19:59:28.778Z,99103.89
2018-07-20T20:01:57.489Z,99108.40
2018-07-20T20:04:27.828Z,99111.59
2018-07-20T20:06:56.600Z,99113.53
2018-07-20T20:09:25.297Z,99116.37
2018-07-20T20:11:54.005Z,99117.52
2018-07-20T20:14:26.931Z,99114.22
2018-07-20T20:16:55.833Z,99113.52
2018-07-20T20:19:25.197Z,99112.20
2018-07-20T20:21:56.789Z,99105.41
2018-07-20T20:24:25.881Z,99107.31
2018-07-20T20:26:54.779Z,99103.63
2018-07-20T20:29:25.698Z,99103.52
2018-07-20T20:31:55.458Z,99102.92
2018-07-20T20:34:25.982Z,99106.36
2018-07-20T20:36:55.379Z,99108.61
2018-07-20T20:39:35.822Z,99110.84
2018-07-20T20:42:16.324Z,99102.86
2018-07-20T20:44:47.256Z,99101.92
2018-07-20T20:47:16.575Z,99104.63
2018-07-20T20:52:24.023Z,99105.97
2018-07-20T20:54:53.851Z,99101.89
2018-07-20T20:57:23.181Z,99105.32
2018-07-20T20:59:57.018Z,99106.38
2018-07-20T21:02:28.224Z,99108.51
2018-07-20T21:04:57.980Z,99101.72
2018-07-20T21:07:34.334Z,99105.02
2018-07-20T21:10:13.730Z,99103.55
2018-07-20T21:12:50.650Z,99106.70
2018-07-20T21:15:25.114Z,99103.59
2018-07-20T21:24:50.733Z,99091.71
2018-07-20T21:33:01.912Z,99086.64
2018-07-20T21:35:38.635Z,99088.75
2018-07-20T21:45:18.231Z,99088.00
2018-07-20T22:00:43.914Z,99100.74
2018-07-20T22:03:13.645Z,99097.97
2018-07-20T22:05:42.330Z,99106.63
2018-07-20T22:08:11.019Z,99104.95
2018-07-20T22:10:39.679Z,99111.47
2018-07-20T22:13:10.182Z,99107.47
2018-07-20T22:15:40.084Z,99103.44
2018-07-20T22:18:08.846Z,99104.02
2018-07-20T22:20:37.645Z,99111.89
2018-07-20T22:23:07.080Z,99107.14
2018-07-20T22:25:36.126Z,99106.89
2018-07-20T22:28:05.451Z,99103.91
2018-07-20T22:30:34.211Z,99104.33
2018-07-20T22:33:03.151Z,99097.86
2018-07-20T22:35:31.790Z,99096.13
2018-07-20T22:38:01.130Z,99096.72
2018-07-20T22:40:29.846Z,99097.30
2018-07-20T22:42:59.169Z,99102.47
2018-07-20T22:45:28.245Z,99103.44
2018-07-20T22:47:56.924Z,99106.20
2018-07-20T22:50:25.946Z,99105.16
2018-07-20T22:52:55.047Z,99105.11
2018-07-20T22:55:23.681Z,99108.76
2018-07-20T22:57:52.921Z,99110.09
2018-07-20T23:00:21.806Z,99104.73
2018-07-20T23:02:51.996Z,99103.12
2018-07-20T23:05:20.738Z,99106.63
2018-07-20T23:07:49.489Z,99110.94
2018-07-20T23:10:19.319Z,99115.61
2018-07-20T23:12:48.189Z,99113.47
2018-07-20T23:15:17.001Z,99115.73
2018-07-20T23:17:45.687Z,99114.36
2018-07-20T23:20:14.432Z,99116.41
2018-07-20T23:22:43.097Z,99117.80
2018-07-20T23:25:11.729Z,99119.83
2018-07-20T23:27:40.485Z,99122.56
2018-07-20T23:30:09.259Z,99120.74
2018-07-20T23:32:38.417Z,99120.98
2018-07-20T23:35:07.404Z,99117.20
2018-07-20T23:37:36.409Z,99116.47
2018-07-20T23:40:06.014Z,99116.02
2018-07-20T23:42:34.756Z,99111.08
2018-07-20T23:45:03.444Z,99114.14
2018-07-20T23:47:32.156Z,99112.77
2018-07-20T23:50:01.117Z,99119.64
2018-07-20T23:52:29.815Z,99112.88
2018-07-20T23:54:58.529Z,99111.30
2018-07-20T23:57:27.236Z,99107.18
2018-07-20T23:59:55.950Z,99105.34
